• Join FlightAware (Why Join?)
  • Login
  • US Flag 
03:39AM EDT


 

Airport Tracker/Info


-or-


 

Live Flight TrackerFlight Track Log ✈ SWA2855 ✈ 18-Apr-2013 ✈ KBWI - KCMH

Flight Track Log - Related Links

Times and Time Zones

All times are in EDT time to prevent confusion due to time zone crossing. See the SWA2855 flight status page for this flight to view local times or setup timezone preferences in your user account.

Time Position Orientation Groundspeed Altitude Reporting Facility
EDT Latitude Longitude Course Direction KTS MPH feet Rate Location/Type
06:20AM 39.1333 -76.6667 211° Southwest 193 222 2,200  Level Potomac TRACON
06:22AM 39.1964 -76.8531 294° West 240 276 9,600 3,120 Climbing Washington Center
06:23AM 39.2119 -76.9550 281° West 271 312 12,500 3,000 Climbing Washington Center
06:24AM 39.2106 -77.0756 269° West 309 356 15,600 3,000 Climbing Washington Center
06:25AM 39.1237 -77.2131 211° Southwest  Level FlightAware Approximate
06:25AM 39.1781 -77.1847 249° West 337 388 18,600  Level Washington Center
06:26AM 39.0958 -77.2550 214° Southwest 326 375 21,000 2,280 Climbing Washington Center
06:28AM 38.9800 -77.4661 235° Southwest 357 411 25,500 1,980 Climbing Washington Center
06:29AM 38.9594 -77.5911 258° West 380 437 27,000 720 Climbing Washington Center
06:30AM 38.9442 -77.7508 263° West 412 474 27,000  Level Washington Center
06:31AM 38.9494 -77.9058 273° West 417 480 27,000 300 Level Washington Center
06:32AM 38.9553 -78.0367 273° West 423 487 27,700 720 Climbing Washington Center
06:33AM 38.9583 -78.1836 272° West 423 487 28,500 1,140 Climbing Washington Center
06:34AM 38.9633 -78.3333 273° West 423 487 30,000 720 Climbing Washington Center
06:35AM 38.9703 -78.4858 273° West 423 487 30,000  Level Washington Center
06:36AM 38.9728 -78.6381 271° West 423 487 30,000  Level Washington Center
06:37AM 38.9794 -78.7881 273° West 423 487 30,000  Level Washington Center
06:38AM 38.9878 -78.9381 274° West 423 487 30,000  Level Washington Center
06:39AM 38.9983 -79.0825 275° West 423 487 30,000  Level Washington Center
06:40AM 39.0125 -79.2331 277° West 423 487 30,000  Level Washington Center
06:41AM 39.0206 -79.3803 274° West 423 487 30,000  Level Washington Center
06:42AM 39.0325 -79.5278 276° West 423 487 30,000  Level Washington Center
06:43AM 39.0442 -79.6756 276° West 423 487 30,000  Level Washington Center
06:44AM 39.0536 -79.8231 275° West 418 481 30,000  Level Washington Center
06:45AM 39.0631 -79.9681 275° West 413 475 30,000  Level Washington Center
06:46AM 39.0711 -80.1442 273° West 417 480 30,000  Level Indianapolis Center
06:47AM 39.0797 -80.2914 274° West 414 476 30,000  Level Indianapolis Center
06:48AM 39.0903 -80.4394 275° West 416 479 30,000  Level Indianapolis Center
06:49AM 39.0992 -80.5864 275° West 414 476 30,000  Level Indianapolis Center
06:50AM 39.1242 -80.7303 283° West 419 482 30,000  Level Indianapolis Center
06:51AM 39.1642 -80.8675 291° West 414 476 30,000  Level Indianapolis Center
06:52AM 39.2053 -81.0050 291° West 414 476 30,000 -300 Level Indianapolis Center
06:53AM 39.2464 -81.1419 291° West 412 474 29,400 -840 Descending Indianapolis Center
06:54AM 39.2853 -81.2794 290° West 411 473 28,400 -960 Descending Indianapolis Center
06:55AM 39.3256 -81.4172 291° West 412 474 27,500 -1,620 Descending Indianapolis Center
06:56AM 39.3719 -81.5811 290° West 408 470 25,200 -2,280 Descending Indianapolis Center
06:57AM 39.4100 -81.7083 291° West 385 443 22,900 -2,340 Descending Indianapolis Center
06:58AM 39.4447 -81.8306 290° West 367 422 20,600 -2,280 Descending Indianapolis Center
06:59AM 39.4706 -81.9294 289° West 351 404 18,800 -2,160 Descending Indianapolis Center
07:00AM 39.5050 -82.0517 290° West 336 387 16,500 -1,620 Descending Indianapolis Center
07:01AM 39.5592 -82.1600 303° West 341 392 15,400 -1,320 Descending Indianapolis Center
07:02AM 39.6150 -82.2500 309° West 335 386 13,800 -1,920 Descending Indianapolis Center
07:03AM 39.6769 -82.3533 308° West 321 369 11,400 -1,920 Descending Indianapolis Center
07:04AM 39.7253 -82.4331 308° West 314 361 10,000 -1,140 Descending Indianapolis Center
07:05AM 39.7767 -82.5192 308° West 302 348 9,100 -1,380 Descending Indianapolis Center
07:06AM 39.8183 -82.5933 306° West 269 310 7,600 -1,680 Descending Indianapolis Center
07:07AM 39.8658 -82.6692 309° West 269 310 6,100 -840 Descending Indianapolis Center
07:08AM 39.8894 -82.7561 290° West 247 284 6,000 -60 Descending Indianapolis Center
07:09AM 39.9047 -82.8392 284° West 228 262 6,000 -420 Level Indianapolis Center
07:10AM 39.9044 -82.9072 270° West 194 223 5,200 -1,140 Descending Indianapolis Center
07:10AM 39.9058 -82.9308 274° West 204 235 4,600 -1,320 Descending Indianapolis Center
07:11AM 39.9142 -82.9789 283° West 196 226 3,900 -1,020 Descending Indianapolis Center
07:11AM 39.9169 -82.9994 280° West 196 226 3,600 -720 Descending Indianapolis Center
07:12AM 39.9375 -83.0361 306° West 195 224 3,100 -420 Descending Indianapolis Center
07:13AM 39.9922 -83.0314 North 215 247 2,900 -480 Descending Indianapolis Center
07:13AM 40.0047 -83.0108 52° Northeast 218 251 2,500 -1,140 Descending Indianapolis Center
07:14AM 40.0000 -82.9781 101° East 162 186 1,900 -1,140 Descending Indianapolis Center
07:14AM 39.9972 -82.9544 99° East 170 196 1,400 -840 Descending Indianapolis Center
07:15AM 39.9972 -82.9286 90° East 117 135 1,100 -540 Descending Indianapolis Center
07:15AM 39.9953 -82.9158 101° East 146 168 900 -480 Descending Indianapolis Center